Time;durP1;ratioP1;P1;durP2;ratioP2;P2;SDS_P1;SDS_P2;PMS_P1;PMS_P2;Temp;Humidity;BMP_temperature;BMP_pressure;BME280_temperature;BME280_humidity;BME280_pressure;Samples;Min_cycle;Max_cycle;Signal;HPM_P1;HPM_P2
2022/11/30 00:01:11;;;;;;;1.33;0.90;;;6.60;99.90;;;;;;5060701;28;20033;-69
2022/11/30 00:03:37;;;;;;;1.20;0.90;;;6.60;99.90;;;;;;5060697;28;20029;-70
2022/11/30 00:06:07;;;;;;;4.70;1.10;;;6.60;99.90;;;;;;5060280;28;20503;-70
2022/11/30 00:08:33;;;;;;;4.35;1.25;;;6.60;99.90;;;;;;5060073;28;20041;-69
2022/11/30 00:10:59;;;;;;;3.40;1.30;;;6.60;99.90;;;;;;5057575;28;20048;-69
2022/11/30 00:13:24;;;;;;;;;;;6.60;99.90;;;;;;5060302;28;20037;-69
2022/11/30 00:15:50;;;;;;;2.17;1.02;;;6.60;99.90;;;;;;5060170;28;19977;-69
2022/11/30 00:18:16;;;;;;;;;;;6.70;99.90;;;;;;5051154;28;20102;-70
2022/11/30 00:20:43;;;;;;;2.42;1.75;;;6.70;99.90;;;;;;5046388;28;19928;-68
2022/11/30 00:23:08;;;;;;;3.30;1.70;;;6.60;99.90;;;;;;5045308;28;20071;-69
2022/11/30 00:25:35;;;;;;;3.70;1.95;;;6.50;99.90;;;;;;5046646;28;20041;-70
2022/11/30 00:28:01;;;;;;;3.20;1.98;;;6.50;99.90;;;;;;5047406;28;20068;-70
2022/11/30 00:30:27;;;;;;;4.20;2.40;;;6.50;99.90;;;;;;5047195;28;20524;-69
2022/11/30 00:32:56;;;;;;;5.03;2.95;;;6.60;99.90;;;;;;5046539;28;20029;-67
2022/11/30 00:35:22;;;;;;;7.00;3.03;;;6.50;99.90;;;;;;5046778;28;20041;-68
2022/11/30 00:37:48;;;;;;;;;;;6.60;99.90;;;;;;5046780;28;20430;-69
2022/11/30 00:40:14;;;;;;;6.93;2.83;;;6.60;99.90;;;;;;5047863;28;19917;-70
2022/11/30 00:42:39;;;;;;;6.75;3.90;;;6.60;99.90;;;;;;5046764;28;20068;-69
2022/11/30 00:45:05;;;;;;;11.98;4.57;;;6.50;99.90;;;;;;5046650;28;20037;-69
2022/11/30 00:47:31;;;;;;;10.05;4.97;;;6.50;99.90;;;;;;5044982;28;20052;-70
2022/11/30 00:49:57;;;;;;;;;;;6.40;99.90;;;;;;5046595;28;20048;-70
2022/11/30 00:52:22;;;;;;;6.13;3.30;;;6.40;99.90;;;;;;5048631;28;19923;-69
2022/11/30 00:54:48;;;;;;;8.77;4.28;;;6.40;99.90;;;;;;5045666;28;20809;-70
2022/11/30 00:57:14;;;;;;;;;;;6.50;99.90;;;;;;5047403;28;20087;-70
2022/11/30 00:59:39;;;;;;;9.25;4.72;;;6.50;99.90;;;;;;5045300;28;20663;-69
2022/11/30 01:02:05;;;;;;;9.80;5.00;;;6.40;99.90;;;;;;5045454;28;20134;-69
2022/11/30 01:04:31;;;;;;;9.32;4.65;;;6.50;99.90;;;;;;5050548;28;20048;-68
2022/11/30 01:06:56;;;;;;;;;;;6.50;99.90;;;;;;5045322;28;20048;-68
2022/11/30 01:09:22;;;;;;;10.40;4.85;;;6.50;99.90;;;;;;5046926;28;19916;-68
2022/11/30 01:11:48;;;;;;;;;;;6.50;99.90;;;;;;5046362;28;20041;-70
2022/11/30 01:14:14;;;;;;;11.02;4.88;;;6.50;99.90;;;;;;5056266;28;19921;-70
2022/11/30 01:16:39;;;;;;;;;;;6.50;99.90;;;;;;5045804;28;20037;-69
2022/11/30 01:19:05;;;;;;;11.10;5.22;;;6.50;99.90;;;;;;5046308;28;19916;-70
2022/11/30 01:21:30;;;;;;;;;;;6.50;99.90;;;;;;5045884;28;20044;-69
2022/11/30 01:23:56;;;;;;;9.40;5.18;;;6.50;99.90;;;;;;5047284;28;19990;-70
2022/11/30 01:26:23;;;;;;;12.25;5.90;;;6.50;99.90;;;;;;5050335;28;20044;-69
2022/11/30 01:28:51;;;;;;;10.02;5.25;;;6.60;99.90;;;;;;5046091;28;20118;-69
2022/11/30 01:31:16;;;;;;;20.48;6.68;;;6.60;99.90;;;;;;5045684;28;20101;-70
2022/11/30 01:33:42;;;;;;;16.48;6.82;;;6.60;99.90;;;;;;5044641;28;20497;-70
2022/11/30 01:36:12;;;;;;;;;;;6.60;99.90;;;;;;5045200;28;20052;-70
2022/11/30 01:38:40;;;;;;;18.08;7.15;;;6.60;99.90;;;;;;5045884;28;19917;-70
2022/11/30 01:41:08;;;;;;;14.63;7.32;;;6.50;99.90;;;;;;5044957;28;20045;-69
2022/11/30 01:43:39;;;;;;;14.52;7.20;;;6.40;99.90;;;;;;5044889;28;20590;-69
2022/11/30 01:46:34;;;;;;;18.67;8.23;;;6.40;99.90;;;;;;5044126;28;20049;-70
2022/11/30 01:49:08;;;;;;;14.50;7.22;;;6.40;99.90;;;;;;5040963;28;20051;-69
2022/11/30 01:51:39;;;;;;;15.73;7.18;;;6.40;99.90;;;;;;5045156;28;20044;-70
2022/11/30 01:54:09;;;;;;;16.83;8.00;;;6.40;99.90;;;;;;5043476;28;20045;-69
2022/11/30 01:56:39;;;;;;;19.73;7.82;;;6.40;99.90;;;;;;5042193;28;20049;-70
2022/11/30 01:59:05;;;;;;;16.70;7.32;;;6.40;99.90;;;;;;5045281;28;20285;-69
2022/11/30 02:01:30;;;;;;;;;;;6.50;99.90;;;;;;5045217;28;20033;-69
2022/11/30 02:04:22;;;;;;;17.60;8.27;;;6.50;99.90;;;;;;5041998;28;19917;-69
2022/11/30 02:06:48;;;;;;;21.08;7.97;;;6.50;99.90;;;;;;5042903;28;20048;-70
2022/11/30 02:09:15;;;;;;;;;;;6.50;99.90;;;;;;5040503;28;20037;-70
2022/11/30 02:11:41;;;;;;;;;;;6.40;99.90;;;;;;5044325;28;19928;-68
2022/11/30 02:14:25;;;;;;;16.15;6.85;;;6.30;99.90;;;;;;5043663;28;19917;-68
2022/11/30 02:16:57;;;;;;;13.93;7.03;;;6.30;99.90;;;;;;5042789;28;20088;-68
2022/11/30 02:19:41;;;;;;;17.48;7.55;;;6.20;99.90;;;;;;5056781;28;20049;-69
2022/11/30 02:22:35;;;;;;;17.20;7.53;;;6.20;99.90;;;;;;5046331;28;20033;-68
2022/11/30 02:25:07;;;;;;;18.27;7.80;;;6.30;99.90;;;;;;5058058;28;20516;-70
2022/11/30 02:27:39;;;;;;;18.38;7.60;;;6.30;99.90;;;;;;5043748;28;20037;-68
2022/11/30 02:30:09;;;;;;;17.77;7.65;;;6.30;99.90;;;;;;5046267;28;20036;-68
2022/11/30 02:32:44;;;;;;;19.55;8.05;;;6.30;99.90;;;;;;5061818;28;20556;-69
2022/11/30 02:35:13;;;;;;;15.55;7.45;;;6.30;99.90;;;;;;5063350;28;20040;-69
2022/11/30 02:37:39;;;;;;;17.05;8.02;;;6.30;99.90;;;;;;5063634;28;20040;-68
2022/11/30 02:40:09;;;;;;;17.10;7.95;;;6.40;99.90;;;;;;5064601;28;20082;-69
2022/11/30 02:42:35;;;;;;;13.50;7.05;;;6.40;99.90;;;;;;5064224;28;20044;-68
2022/11/30 02:45:01;;;;;;;13.80;6.63;;;6.40;99.90;;;;;;5064209;28;20480;-69
2022/11/30 02:47:39;;;;;;;15.73;7.63;;;6.40;99.90;;;;;;5061337;28;20048;-69
2022/11/30 02:50:14;;;;;;;16.95;7.63;;;6.50;99.90;;;;;;5064246;28;20048;-70
2022/11/30 02:52:40;;;;;;;16.85;8.32;;;6.50;99.90;;;;;;5063566;28;20040;-68
2022/11/30 02:55:09;;;;;;;15.52;7.70;;;6.50;99.90;;;;;;5055687;28;20537;-69
2022/11/30 02:57:35;;;;;;;19.88;9.00;;;6.50;99.90;;;;;;5064056;28;20550;-68
2022/11/30 03:00:05;;;;;;;25.73;12.32;;;6.50;99.90;;;;;;5066148;28;20051;-69
2022/11/30 03:02:32;;;;;;;27.30;11.88;;;6.40;99.90;;;;;;5062227;28;20040;-68
2022/11/30 03:04:57;;;;;;;27.08;12.68;;;6.40;99.90;;;;;;5064412;28;20450;-68
2022/11/30 03:07:23;;;;;;;19.73;9.40;;;6.40;99.90;;;;;;5064301;28;20045;-70
2022/11/30 03:09:49;;;;;;;19.95;9.23;;;6.40;99.90;;;;;;5061057;28;20043;-67
2022/11/30 03:12:15;;;;;;;;;;;6.40;99.90;;;;;;5064765;28;20464;-68
2022/11/30 03:14:41;;;;;;;21.10;9.52;;;6.40;99.90;;;;;;5062523;28;19965;-70
2022/11/30 03:17:06;;;;;;;22.17;9.50;;;6.50;99.90;;;;;;5062788;28;20044;-68
2022/11/30 03:19:32;;;;;;;;;;;6.50;99.90;;;;;;5064600;28;20106;-69
2022/11/30 03:21:58;;;;;;;23.92;10.20;;;6.40;99.90;;;;;;5063922;28;19927;-68
2022/11/30 03:24:24;;;;;;;;;;;6.40;99.90;;;;;;5063533;28;20439;-69
2022/11/30 03:26:51;;;;;;;23.55;10.68;;;6.50;99.90;;;;;;5063686;28;19920;-69
2022/11/30 03:29:16;;;;;;;24.48;12.45;;;6.40;99.90;;;;;;5064320;28;20036;-68
2022/11/30 03:31:42;;;;;;;29.13;12.35;;;6.50;99.90;;;;;;5063283;28;20036;-67
2022/11/30 03:34:07;;;;;;;;;;;6.50;99.90;;;;;;5063399;28;20044;-69
2022/11/30 03:36:33;;;;;;;31.98;11.88;;;6.50;99.90;;;;;;5063489;28;19943;-68
2022/11/30 03:38:59;;;;;;;28.17;12.68;;;6.40;99.90;;;;;;5064370;28;20082;-67
2022/11/30 03:41:24;;;;;;;27.52;12.48;;;6.50;99.90;;;;;;5061648;28;20059;-69
2022/11/30 03:43:50;;;;;;;32.58;13.50;;;6.50;99.90;;;;;;5062952;28;20075;-68
2022/11/30 03:46:16;;;;;;;32.15;12.63;;;6.50;99.90;;;;;;5060830;28;20044;-69
2022/11/30 03:48:42;;;;;;;30.30;13.27;;;6.50;99.90;;;;;;5063622;28;20041;-69
2022/11/30 03:51:09;;;;;;;28.63;12.75;;;6.50;99.90;;;;;;5063595;28;20040;-69
2022/11/30 03:53:35;;;;;;;29.65;13.40;;;6.50;99.90;;;;;;5065197;28;20151;-69
2022/11/30 03:56:04;;;;;;;28.13;12.65;;;6.50;99.90;;;;;;5067168;28;20491;-69
2022/11/30 03:58:30;;;;;;;28.50;12.43;;;6.50;99.90;;;;;;5065529;28;20045;-69
2022/11/30 04:01:08;;;;;;;33.42;14.25;;;6.50;99.90;;;;;;5066123;28;20416;-70
2022/11/30 04:03:35;;;;;;;33.55;13.13;;;6.50;99.90;;;;;;5067284;28;20111;-69
2022/11/30 04:06:02;;;;;;;27.73;13.10;;;6.50;99.90;;;;;;5062262;28;20106;-70
2022/11/30 04:08:28;;;;;;;30.77;12.75;;;6.50;99.90;;;;;;5064620;28;20043;-69
2022/11/30 04:10:55;;;;;;;25.83;12.57;;;6.50;99.90;;;;;;5065071;28;20040;-69
2022/11/30 04:13:22;;;;;;;27.77;12.15;;;6.50;99.90;;;;;;5067454;28;20082;-69
2022/11/30 04:15:49;;;;;;;39.78;13.60;;;6.50;99.90;;;;;;5066081;28;20118;-69
2022/11/30 04:18:16;;;;;;;28.52;13.20;;;6.50;99.90;;;;;;5063053;28;20044;-68
2022/11/30 04:20:42;;;;;;;31.15;12.85;;;6.50;99.90;;;;;;5066283;28;20037;-68
2022/11/30 04:23:09;;;;;;;32.45;12.75;;;6.50;99.90;;;;;;5064256;28;20132;-68
2022/11/30 04:25:37;;;;;;;31.40;13.02;;;6.50;99.90;;;;;;5064102;28;20036;-69
2022/11/30 04:28:03;;;;;;;28.50;12.57;;;6.50;99.90;;;;;;5066392;28;20156;-68
2022/11/30 04:30:28;;;;;;;;;;;6.50;99.90;;;;;;5067593;28;20111;-68
2022/11/30 04:32:54;;;;;;;32.88;13.32;;;6.50;99.90;;;;;;5065639;28;19961;-68
2022/11/30 04:35:20;;;;;;;34.67;14.70;;;6.50;99.90;;;;;;5062783;28;20036;-67
2022/11/30 04:37:45;;;;;;;;;;;6.50;99.90;;;;;;5064156;28;20040;-69
2022/11/30 04:40:12;;;;;;;30.27;12.20;;;6.50;99.90;;;;;;5063086;28;19920;-69
2022/11/30 04:42:37;;;;;;;39.15;13.00;;;6.50;99.90;;;;;;5064069;28;20047;-68
2022/11/30 04:45:03;;;;;;;;;;;6.50;99.90;;;;;;5065144;28;20032;-69
2022/11/30 04:47:29;;;;;;;32.13;12.68;;;6.40;99.90;;;;;;5064595;28;20046;-70
2022/11/30 04:49:54;;;;;;;25.60;11.43;;;6.50;99.90;;;;;;5066522;28;20614;-68
2022/11/30 04:52:20;;;;;;;28.90;12.15;;;6.50;99.90;;;;;;5065957;28;20754;-69
2022/11/30 04:54:45;;;;;;;;;;;6.50;99.90;;;;;;5064799;28;20082;-68
2022/11/30 04:57:11;;;;;;;25.60;11.68;;;6.40;99.90;;;;;;5066094;28;19924;-70
2022/11/30 04:59:37;;;;;;;28.35;11.93;;;6.40;99.90;;;;;;5066616;28;20502;-67
2022/11/30 05:02:02;;;;;;;38.33;13.38;;;6.40;99.90;;;;;;5048914;28;20033;-69
2022/11/30 05:04:28;;;;;;;;;;;6.40;99.90;;;;;;5045257;28;21006;-69
2022/11/30 05:06:53;;;;;;;48.50;13.48;;;6.40;99.90;;;;;;5047748;28;20412;-68
2022/11/30 05:09:19;;;;;;;27.80;11.82;;;6.40;99.90;;;;;;5046194;28;20033;-69
2022/11/30 05:11:45;;;;;;;32.80;12.55;;;6.40;99.90;;;;;;5044559;28;20147;-68
2022/11/30 05:14:11;;;;;;;28.05;11.75;;;6.40;99.90;;;;;;5043429;28;20067;-69
2022/11/30 05:16:37;;;;;;;27.67;11.20;;;6.40;99.90;;;;;;5044397;28;20050;-68
2022/11/30 05:19:03;;;;;;;;;;;6.40;99.90;;;;;;5041022;28;20505;-69
2022/11/30 05:21:28;;;;;;;26.10;11.27;;;6.50;99.90;;;;;;5045852;28;19920;-69
2022/11/30 05:23:54;;;;;;;31.05;10.55;;;6.50;99.90;;;;;;5045104;28;20107;-70
2022/11/30 05:26:20;;;;;;;20.05;8.70;;;6.50;99.90;;;;;;5043468;28;20143;-70
2022/11/30 05:28:45;;;;;;;16.52;7.85;;;6.50;99.90;;;;;;5039187;28;20088;-71
2022/11/30 05:31:11;;;;;;;21.13;9.20;;;6.50;99.90;;;;;;5045836;28;20493;-71
2022/11/30 05:33:36;;;;;;;;;;;6.50;99.90;;;;;;5034812;28;20044;-70
2022/11/30 05:36:02;;;;;;;14.68;7.38;;;6.50;99.90;;;;;;5040129;28;19963;-70
2022/11/30 05:38:28;;;;;;;17.98;7.07;;;6.60;99.90;;;;;;5041967;28;20045;-69
2022/11/30 05:41:01;;;;;;;13.82;6.43;;;6.60;99.90;;;;;;5032682;28;20029;-69
2022/11/30 05:43:27;;;;;;;16.20;7.57;;;6.50;99.90;;;;;;5036364;28;20043;-66
2022/11/30 05:46:00;;;;;;;16.45;6.32;;;6.50;99.90;;;;;;5032605;28;20037;-64
2022/11/30 05:48:26;;;;;;;5.43;3.10;;;6.50;99.90;;;;;;5035701;28;20075;-68
2022/11/30 05:50:52;;;;;;;9.20;4.07;;;6.40;99.90;;;;;;5035096;28;20068;-65
2022/11/30 05:53:17;;;;;;;;;;;6.40;99.90;;;;;;5041090;28;20567;-67
2022/11/30 05:55:43;;;;;;;5.20;2.72;;;6.40;99.90;;;;;;5035916;28;20376;-66
2022/11/30 05:58:09;;;;;;;7.03;2.80;;;6.40;99.90;;;;;;5034091;28;20034;-67
2022/11/30 06:00:35;;;;;;;6.30;3.05;;;6.40;99.90;;;;;;5041705;28;20070;-67
2022/11/30 06:03:00;;;;;;;7.13;3.10;;;6.30;99.90;;;;;;5045126;28;20037;-66
2022/11/30 06:05:26;;;;;;;;;;;6.20;99.90;;;;;;5045437;28;20037;-66
2022/11/30 06:07:52;;;;;;;9.57;4.07;;;6.20;99.90;;;;;;5044310;28;20031;-66
2022/11/30 06:10:18;;;;;;;8.05;3.90;;;6.10;99.90;;;;;;5047848;28;20043;-66
2022/11/30 06:12:45;;;;;;;7.82;4.10;;;6.10;99.90;;;;;;5044390;28;20051;-66
2022/11/30 06:15:11;;;;;;;8.25;4.28;;;6.00;99.90;;;;;;5041722;28;20044;-67
2022/11/30 06:17:36;;;;;;;10.05;4.50;;;5.90;99.90;;;;;;5041071;28;20052;-67
2022/11/30 06:20:06;;;;;;;6.85;3.42;;;5.90;99.90;;;;;;5045425;28;20044;-67
2022/11/30 06:22:31;;;;;;;10.82;4.43;;;5.90;99.90;;;;;;5044535;28;20048;-66
2022/11/30 06:24:57;;;;;;;7.97;4.65;;;5.90;99.90;;;;;;5044006;28;20070;-67
2022/11/30 06:27:23;;;;;;;;;;;5.90;99.90;;;;;;5045281;28;20079;-66
2022/11/30 06:29:48;;;;;;;17.48;4.78;;;5.90;99.90;;;;;;5046233;28;19917;-67
2022/11/30 06:32:14;;;;;;;10.95;4.57;;;6.00;99.90;;;;;;5042807;28;20112;-71
2022/11/30 06:34:40;;;;;;;11.48;4.65;;;6.00;99.90;;;;;;5039704;28;20037;-68
2022/11/30 06:37:05;;;;;;;;;;;5.90;99.90;;;;;;5033139;28;20095;-68
2022/11/30 06:39:31;;;;;;;15.77;5.15;;;5.90;99.90;;;;;;5035807;28;20402;-70
2022/11/30 06:41:57;;;;;;;24.50;4.20;;;5.90;99.90;;;;;;5042154;28;20044;-69
2022/11/30 06:44:23;;;;;;;15.98;4.60;;;5.90;99.90;;;;;;5055405;28;20039;-70
2022/11/30 06:46:48;;;;;;;16.80;4.93;;;5.90;99.90;;;;;;5041664;28;20041;-69
2022/11/30 06:49:14;;;;;;;9.77;4.90;;;5.80;99.90;;;;;;5043443;28;20615;-69
2022/11/30 06:51:40;;;;;;;15.93;5.03;;;5.90;99.90;;;;;;5040739;28;20048;-70
2022/11/30 06:54:06;;;;;;;;;;;5.80;99.90;;;;;;5040051;28;20048;-68
2022/11/30 06:56:31;;;;;;;26.45;4.97;;;5.80;99.90;;;;;;5039318;28;20392;-69
2022/11/30 06:58:57;;;;;;;21.42;4.60;;;5.70;99.90;;;;;;5039751;28;20072;-69
2022/11/30 07:01:22;;;;;;;21.13;4.85;;;5.70;99.90;;;;;;5043356;28;20405;-69
2022/11/30 07:03:48;;;;;;;;;;;5.70;99.90;;;;;;5043885;28;20044;-67
2022/11/30 07:06:14;;;;;;;58.58;5.30;;;5.70;99.90;;;;;;5042967;28;20376;-70
2022/11/30 07:08:41;;;;;;;169.85;8.77;;;5.70;99.90;;;;;;5044326;28;20489;-68
2022/11/30 07:11:08;;;;;;;111.40;7.50;;;5.60;99.90;;;;;;5044339;28;20033;-64
2022/11/30 07:13:34;;;;;;;48.63;5.85;;;5.60;99.90;;;;;;5044408;28;20489;-63
2022/11/30 07:16:07;;;;;;;37.97;6.07;;;5.50;99.90;;;;;;5041736;28;20493;-69
2022/11/30 07:18:33;;;;;;;136.85;7.57;;;5.60;99.90;;;;;;5044078;28;20459;-69
2022/11/30 07:21:01;;;;;;;56.85;6.25;;;5.50;99.90;;;;;;5042996;28;20048;-68
2022/11/30 07:26:12;;;;;;;56.33;5.03;;;5.50;99.90;;;;;;5039224;28;20038;-69
2022/11/30 07:28:39;;;;;;;70.90;5.63;;;5.50;99.90;;;;;;5044172;28;20052;-68
2022/11/30 07:31:40;;;;;;;35.97;4.72;;;5.50;99.90;;;;;;5047683;28;20128;-68
2022/11/30 07:34:08;;;;;;;26.83;4.25;;;5.60;99.90;;;;;;4994911;28;20541;-69
2022/11/30 07:36:35;;;;;;;58.10;5.15;;;5.60;99.90;;;;;;5035015;28;20547;-68
2022/11/30 07:39:02;;;;;;;14.32;4.03;;;5.60;99.90;;;;;;5047875;28;20071;-68
2022/11/30 07:41:27;;;;;;;124.43;7.25;;;5.60;99.90;;;;;;5047239;28;20127;-69
2022/11/30 07:43:53;;;;;;;27.52;4.47;;;5.70;99.90;;;;;;5045868;28;20228;-69
2022/11/30 07:46:19;;;;;;;192.93;8.10;;;5.70;99.90;;;;;;5045355;28;21347;-70
2022/11/30 07:48:45;;;;;;;;;;;5.70;99.90;;;;;;5047359;28;20393;-68
2022/11/30 07:51:21;;;;;;;291.45;11.25;;;5.60;99.90;;;;;;5046177;28;19927;-69
2022/11/30 07:53:47;;;;;;;42.75;4.40;;;5.50;99.90;;;;;;5044899;28;20079;-68
2022/11/30 07:56:18;;;;;;;115.03;6.15;;;5.60;99.90;;;;;;5045383;28;20083;-69
2022/11/30 07:58:45;;;;;;;29.60;3.78;;;5.50;99.90;;;;;;5044850;28;20037;-68
2022/11/30 08:01:13;;;;;;;18.55;4.70;;;5.60;99.90;;;;;;5044914;28;20158;-67
2022/11/30 08:03:39;;;;;;;21.00;4.55;;;5.60;99.90;;;;;;5040938;28;20075;-67
2022/11/30 08:06:07;;;;;;;64.80;6.28;;;5.70;99.90;;;;;;5042627;28;20124;-69
2022/11/30 08:08:36;;;;;;;41.05;4.65;;;5.70;99.90;;;;;;5047010;28;20044;-69
2022/11/30 08:11:04;;;;;;;79.25;5.85;;;5.70;99.90;;;;;;5044125;28;20117;-68
2022/11/30 08:13:30;;;;;;;69.18;5.60;;;5.70;99.90;;;;;;5040092;28;20040;-68
2022/11/30 08:16:01;;;;;;;30.83;5.40;;;5.60;99.90;;;;;;5042496;28;20049;-68
2022/11/30 08:18:27;;;;;;;42.53;7.38;;;5.70;99.90;;;;;;5045285;28;20048;-69
2022/11/30 08:20:57;;;;;;;23.02;4.20;;;5.70;99.90;;;;;;5046028;28;20033;-68
2022/11/30 08:23:22;;;;;;;19.77;4.28;;;5.70;99.90;;;;;;5046140;28;20598;-69
2022/11/30 08:25:48;;;;;;;19.60;4.38;;;5.80;99.90;;;;;;5045024;28;20044;-69
2022/11/30 08:28:14;;;;;;;23.98;4.88;;;5.80;99.90;;;;;;5046262;28;20033;-68
2022/11/30 08:30:40;;;;;;;48.10;5.28;;;5.80;99.90;;;;;;5045300;28;20041;-68
2022/11/30 08:33:05;;;;;;;;;;;5.70;99.90;;;;;;5045238;28;20033;-69
2022/11/30 08:35:31;;;;;;;9.88;3.85;;;5.70;99.90;;;;;;5041630;28;19929;-68
2022/11/30 08:37:57;;;;;;;14.63;4.20;;;5.70;99.90;;;;;;5046054;28;20049;-68
2022/11/30 08:40:22;;;;;;;9.73;4.38;;;5.80;99.90;;;;;;5045473;28;20072;-68
2022/11/30 08:42:48;;;;;;;6.38;3.88;;;5.70;99.90;;;;;;5044622;28;20068;-69
2022/11/30 08:45:13;;;;;;;7.35;3.90;;;5.70;99.90;;;;;;5033988;28;20444;-68
2022/11/30 08:47:39;;;;;;;7.15;4.07;;;5.70;99.90;;;;;;5043677;28;20110;-69
2022/11/30 08:50:05;;;;;;;8.38;4.38;;;5.70;99.90;;;;;;5043906;28;20037;-68
2022/11/30 08:52:31;;;;;;;7.05;4.00;;;5.70;99.90;;;;;;5045510;28;20037;-69
2022/11/30 08:54:56;;;;;;;7.47;4.05;;;5.70;99.90;;;;;;5045055;28;20571;-69
2022/11/30 08:57:22;;;;;;;;;;;5.70;99.90;;;;;;5044357;28;20151;-68
2022/11/30 08:59:48;;;;;;;9.93;4.55;;;5.70;99.90;;;;;;5042819;28;19917;-68
2022/11/30 09:02:16;;;;;;;;;;;5.70;99.90;;;;;;5044675;28;20481;-69
2022/11/30 09:04:42;;;;;;;12.25;5.63;;;5.60;99.90;;;;;;5045432;28;19920;-69
2022/11/30 09:07:08;;;;;;;10.23;5.38;;;5.50;99.90;;;;;;5045279;28;20036;-69
2022/11/30 09:09:35;;;;;;;15.27;6.65;;;5.50;99.90;;;;;;5044768;28;20045;-68
2022/11/30 09:12:01;;;;;;;15.02;6.60;;;5.50;99.90;;;;;;5044793;28;20479;-69
2022/11/30 09:14:27;;;;;;;12.77;6.60;;;5.50;99.90;;;;;;5043918;28;20671;-69
2022/11/30 09:16:54;;;;;;;19.35;6.68;;;5.50;99.90;;;;;;5043265;28;20072;-69
2022/11/30 09:19:20;;;;;;;16.17;7.25;;;5.50;99.90;;;;;;5046131;28;20037;-69
2022/11/30 09:21:46;;;;;;;15.98;6.82;;;5.40;99.90;;;;;;5044852;28;20065;-68
2022/11/30 09:24:11;;;;;;;14.23;6.50;;;5.40;99.90;;;;;;5044928;28;20142;-70
2022/11/30 09:26:37;;;;;;;;;;;5.40;99.90;;;;;;5045428;28;20392;-68
2022/11/30 09:29:02;;;;;;;13.23;6.68;;;5.30;99.90;;;;;;5045057;28;19917;-69
2022/11/30 09:31:28;;;;;;;;;;;5.40;99.90;;;;;;5044955;28;20045;-68
2022/11/30 09:33:55;;;;;;;18.13;7.45;;;5.50;99.90;;;;;;5042623;28;20560;-69
2022/11/30 09:36:22;;;;;;;15.45;7.60;;;5.50;99.90;;;;;;5045476;28;20599;-68
2022/11/30 09:38:48;;;;;;;14.27;7.03;;;5.50;99.90;;;;;;5042017;28;20048;-68
2022/11/30 09:41:28;;;;;;;18.38;7.85;;;5.60;99.90;;;;;;5036384;28;20033;-69
2022/11/30 09:44:02;;;;;;;14.70;7.03;;;5.60;99.90;;;;;;5041887;28;20052;-69
2022/11/30 09:46:39;;;;;;;14.88;6.88;;;5.60;99.90;;;;;;5044191;28;20045;-69
2022/11/30 09:49:18;;;;;;;15.65;7.25;;;5.60;99.90;;;;;;5044386;28;20047;-69
2022/11/30 09:51:49;;;;;;;16.00;7.10;;;5.70;99.90;;;;;;5042797;28;20037;-69
2022/11/30 09:54:19;;;;;;;14.77;6.82;;;5.70;99.90;;;;;;5039434;28;20040;-69
2022/11/30 09:56:45;;;;;;;12.90;6.15;;;5.70;99.90;;;;;;5041733;28;20629;-69
2022/11/30 09:59:28;;;;;;;14.50;6.70;;;5.80;99.90;;;;;;5044969;28;20487;-68
2022/11/30 10:01:54;;;;;;;14.15;7.18;;;5.80;99.90;;;;;;5044665;28;20049;-69
2022/11/30 10:04:28;;;;;;;14.65;6.75;;;5.80;99.90;;;;;;5044824;28;20051;-69
2022/11/30 10:07:14;;;;;;;14.70;6.95;;;5.70;99.90;;;;;;5039607;28;20049;-68
2022/11/30 10:10:03;;;;;;;12.35;6.82;;;5.70;99.90;;;;;;5044281;28;20095;-68
2022/11/30 10:12:39;;;;;;;15.60;7.88;;;5.80;99.90;;;;;;5033215;28;20056;-69
2022/11/30 10:15:21;;;;;;;12.80;6.68;;;5.90;99.90;;;;;;5042617;28;20063;-69
2022/11/30 10:17:55;;;;;;;25.42;6.78;;;6.00;99.90;;;;;;5042690;28;20053;-68
2022/11/30 10:20:27;;;;;;;9.40;5.30;;;6.10;99.90;;;;;;5042420;28;20056;-69
2022/11/30 10:23:03;;;;;;;9.60;5.30;;;6.10;99.90;;;;;;5042454;28;20032;-70
2022/11/30 10:25:29;;;;;;;12.27;6.18;;;6.20;99.90;;;;;;5034035;28;20041;-69
2022/11/30 10:28:05;;;;;;;11.77;5.40;;;6.30;99.90;;;;;;5043293;28;20580;-69
2022/11/30 10:30:35;;;;;;;8.15;4.43;;;6.40;99.90;;;;;;5037539;28;20867;-70
2022/11/30 10:33:21;;;;;;;9.07;4.95;;;6.30;99.90;;;;;;5036931;28;20528;-69
2022/11/30 10:35:53;;;;;;;10.20;5.07;;;6.40;99.90;;;;;;5038771;28;20643;-69
2022/11/30 10:38:25;;;;;;;11.25;5.90;;;6.30;99.90;;;;;;5039632;28;20041;-69
2022/11/30 10:40:56;;;;;;;9.23;5.35;;;6.30;99.90;;;;;;5042885;28;20408;-69
2022/11/30 10:43:45;;;;;;;10.43;5.50;;;6.30;99.90;;;;;;5040955;28;20570;-70
2022/11/30 10:46:32;;;;;;;12.00;5.75;;;;;;;;;;5043480;28;20056;-69
2022/11/30 10:49:01;;;;;;;9.75;5.18;;;;;;;;;;5041344;28;20454;-69
2022/11/30 10:51:28;;;;;;;11.02;5.95;;;;;;;;;;5059038;28;20077;-69
2022/11/30 10:53:55;;;;;;;10.07;5.28;;;;;;;;;;5043060;28;20101;-69
2022/11/30 10:56:21;;;;;;;8.20;4.70;;;;;;;;;;5043180;28;20073;-68
2022/11/30 10:58:53;;;;;;;8.02;4.75;;;;;;;;;;5044293;28;20208;-69
2022/11/30 11:01:36;;;;;;;9.68;5.40;;;;;;;;;;5052707;28;20044;-68
2022/11/30 11:04:11;;;;;;;9.07;5.07;;;;;;;;;;5035756;28;20505;-70
2022/11/30 11:06:44;;;;;;;8.45;4.85;;;;;;;;;;5043853;28;20127;-67
2022/11/30 11:09:23;;;;;;;7.65;4.25;;;;;;;;;;5043434;28;20041;-70
2022/11/30 11:11:54;;;;;;;8.63;4.82;;;;;;;;;;5043617;28;20037;-66
2022/11/30 11:14:23;;;;;;;11.45;5.15;;;;;;;;;;5043475;28;20072;-69
2022/11/30 11:17:00;;;;;;;8.82;5.45;;;;;;;;;;5058801;28;20041;-68
2022/11/30 11:19:32;;;;;;;9.23;4.90;;;;;;;;;;5044295;28;20056;-65
2022/11/30 11:22:00;;;;;;;9.98;5.55;;;;;;;;;;5044051;28;20041;-67
2022/11/30 11:24:27;;;;;;;10.95;5.20;;;;;;;;;;5043058;28;20044;-67
2022/11/30 11:26:54;;;;;;;9.10;5.28;;;;;;;;;;5041269;28;20057;-68
2022/11/30 11:29:30;;;;;;;10.35;5.70;;;;;;;;;;5038367;28;20481;-68
2022/11/30 11:32:05;;;;;;;11.25;6.55;;;;;;;;;;5031479;28;20103;-68
2022/11/30 11:34:32;;;;;;;12.85;6.72;;;;;;;;;;5033800;28;20523;-68
2022/11/30 11:37:12;;;;;;;13.23;7.25;;;;;;;;;;5034304;28;20072;-68
2022/11/30 11:39:38;;;;;;;14.95;7.47;;;;;;;;;;5035069;28;20555;-68
2022/11/30 11:42:05;;;;;;;11.15;6.38;;;;;;;;;;5036418;28;20112;-67
2022/11/30 11:44:32;;;;;;;12.63;5.72;;;;;;;;;;5035376;28;20128;-67
2022/11/30 11:47:02;;;;;;;11.52;6.43;;;;;;;;;;5040326;28;20055;-69
2022/11/30 11:49:31;;;;;;;11.90;6.55;;;;;;;;;;5035100;28;20128;-68
2022/11/30 11:52:01;;;;;;;9.98;5.75;;;;;;;;;;5054870;28;20048;-68
2022/11/30 11:54:32;;;;;;;11.65;6.10;;;;;;;;;;5035170;28;20041;-68
2022/11/30 11:56:59;;;;;;;14.07;6.70;;;;;;;;;;5033846;28;20045;-68
2022/11/30 11:59:28;;;;;;;9.23;5.30;;;;;;;;;;5032540;28;20041;-67
2022/11/30 12:02:01;;;;;;;11.07;6.28;;;;;;;;;;5047657;28;20041;-68
2022/11/30 12:05:06;;;;;;;11.15;6.20;;;;;;;;;;5055467;28;20044;-69
2022/11/30 12:07:34;;;;;;;10.18;5.35;;;;;;;;;;5039500;28;20086;-68
2022/11/30 12:10:10;;;;;;;9.43;5.55;;;;;;;;;;5041301;28;20115;-68
2022/11/30 12:12:36;;;;;;;9.63;5.78;;;;;;;;;;5053930;28;20428;-68
2022/11/30 12:15:02;;;;;;;10.00;5.63;;;;;;;;;;5055045;28;20040;-68
2022/11/30 12:17:52;;;;;;;10.38;6.38;;;;;;;;;;5061922;28;20048;-67
2022/11/30 12:20:21;;;;;;;9.93;5.90;;;;;;;;;;5054788;28;20068;-68
2022/11/30 12:22:51;;;;;;;9.40;5.18;;;;;;;;;;5059683;28;20442;-68
2022/11/30 12:25:23;;;;;;;9.80;5.22;;;;;;;;;;5047593;28;20397;-68
2022/11/30 12:27:55;;;;;;;9.48;5.60;;;;;;;;;;5055917;28;20128;-68
2022/11/30 12:30:23;;;;;;;10.15;5.90;;;;;;;;;;5055995;28;20492;-65
2022/11/30 12:32:55;;;;;;;10.43;6.20;;;;;;;;;;5061246;28;20291;-64
2022/11/30 12:35:21;;;;;;;11.43;5.78;;;;;;;;;;5056116;28;20401;-69
2022/11/30 12:37:47;;;;;;;11.00;5.95;;;;;;;;;;5061268;28;20049;-72
2022/11/30 12:40:16;;;;;;;11.18;6.03;;;;;;;;;;5054664;28;20037;-70
2022/11/30 12:42:57;;;;;;;13.07;6.93;;;;;;;;;;5055090;28;20563;-73
2022/11/30 12:45:29;;;;;;;10.43;5.90;;;;;;;;;;5054754;28;20048;-70
2022/11/30 12:48:04;;;;;;;10.15;6.28;;;;;;;;;;5057260;28;20053;-71
2022/11/30 12:50:38;;;;;;;10.02;5.80;;;;;;;;;;5058229;28;20044;-70
2022/11/30 12:53:13;;;;;;;11.82;5.25;;;;;;;;;;5055765;28;20041;-70
2022/11/30 12:55:47;;;;;;;12.68;5.88;;;;;;;;;;5056833;28;20095;-71
2022/11/30 12:58:13;;;;;;;9.65;5.43;;;;;;;;;;5069329;28;20127;-71
2022/11/30 13:01:05;;;;;;;9.15;5.53;;;;;;;;;;5059117;28;20079;-71
2022/11/30 13:03:57;;;;;;;9.38;5.75;;;;;;;;;;5063298;28;20166;-70
2022/11/30 13:06:30;;;;;;;11.15;6.28;;;;;;;;;;5058949;28;20060;-68
2022/11/30 13:09:01;;;;;;;10.98;6.65;;;;;;;;;;5067590;28;20040;-67
2022/11/30 13:11:31;;;;;;;10.43;5.82;;;;;;;;;;5065964;28;20514;-68
2022/11/30 13:13:58;;;;;;;9.63;5.57;;;;;;;;;;5075184;28;20040;-68
2022/11/30 13:16:25;;;;;;;10.18;5.30;;;;;;;;;;5058454;28;20037;-68
2022/11/30 13:18:52;;;;;;;12.23;5.20;;;;;;;;;;5049830;28;20124;-68
2022/11/30 13:21:18;;;;;;;8.13;4.82;;;;;;;;;;5051681;28;20295;-68
2022/11/30 13:23:56;;;;;;;8.85;4.43;;;;;;;;;;5057015;28;20059;-68
2022/11/30 13:26:22;;;;;;;9.05;4.55;;;;;;;;;;5054165;28;20052;-68
2022/11/30 13:29:02;;;;;;;9.00;5.05;;;;;;;;;;5052345;28;20048;-68